createdAt,value
2018-04-12T00:00:00.422Z,4.60
2018-04-12T00:02:30.468Z,4.60
2018-04-12T00:04:58.576Z,4.80
2018-04-12T00:07:26.713Z,4.90
2018-04-12T00:09:54.893Z,5.00
2018-04-12T00:12:23.031Z,5.10
2018-04-12T00:15:05.661Z,5.20
2018-04-12T00:17:33.791Z,5.20
2018-04-12T00:20:09.089Z,5.20
2018-04-12T00:22:42.282Z,5.10
2018-04-12T00:25:10.411Z,5.00
2018-04-12T00:27:42.194Z,4.90
2018-04-12T00:30:10.622Z,4.80
2018-04-12T00:32:40.724Z,4.70
2018-04-12T00:35:08.833Z,4.70
2018-04-12T00:37:38.822Z,4.80
2018-04-12T00:40:11.628Z,4.90
2018-04-12T00:42:52.142Z,5.10
2018-04-12T00:45:24.230Z,5.10
2018-04-12T00:47:56.433Z,5.00
2018-04-12T00:50:32.703Z,4.90
2018-04-12T00:53:05.990Z,4.90
2018-04-12T00:55:34.087Z,4.80
2018-04-12T00:58:13.169Z,4.80
2018-04-12T01:00:46.203Z,4.70
2018-04-12T01:03:14.331Z,4.70
2018-04-12T01:05:42.426Z,4.70
2018-04-12T01:08:28.490Z,4.70
2018-04-12T01:11:05.421Z,4.60
2018-04-12T01:13:35.082Z,4.60
2018-04-12T01:16:05.570Z,4.80
2018-04-12T01:18:55.671Z,4.80
2018-04-12T01:21:29.683Z,5.00
2018-04-12T01:23:58.247Z,4.90
2018-04-12T01:26:27.332Z,5.00
2018-04-12T01:28:58.281Z,5.10
2018-04-12T01:31:30.034Z,5.20
2018-04-12T01:36:57.284Z,5.30
2018-04-12T01:39:31.121Z,5.40
2018-04-12T01:42:06.521Z,5.50
2018-04-12T01:44:36.238Z,5.60
2018-04-12T01:50:27.473Z,5.50
2018-04-12T01:52:56.365Z,5.30
2018-04-12T01:55:29.099Z,5.30
2018-04-12T02:01:00.987Z,5.10
2018-04-12T02:03:29.087Z,5.00
2018-04-12T02:05:57.192Z,4.90
2018-04-12T02:08:25.334Z,4.80
2018-04-12T02:10:57.668Z,4.80
2018-04-12T02:13:36.237Z,4.80
2018-04-12T02:19:16.768Z,4.80
2018-04-12T02:22:03.562Z,4.80
2018-04-12T02:24:36.143Z,4.80
2018-04-12T02:27:04.239Z,4.80
2018-04-12T02:29:32.354Z,4.80
2018-04-12T02:32:05.668Z,4.80
2018-04-12T02:34:43.167Z,4.70
2018-04-12T02:37:11.293Z,4.70
2018-04-12T02:39:43.088Z,4.80
2018-04-12T02:42:30.210Z,4.80
2018-04-12T02:47:57.090Z,4.80
2018-04-12T02:50:33.507Z,4.80
2018-04-12T02:53:02.410Z,4.80
2018-04-12T02:55:57.174Z,4.80
2018-04-12T02:58:31.246Z,4.80
2018-04-12T03:01:00.172Z,4.60
2018-04-12T03:03:30.281Z,4.60
2018-04-12T03:06:02.273Z,4.60
2018-04-12T03:08:54.107Z,4.60
2018-04-12T03:11:23.150Z,4.60
2018-04-12T03:13:53.163Z,4.60
2018-04-12T03:16:25.131Z,4.60
2018-04-12T03:18:55.166Z,4.60
2018-04-12T03:21:26.830Z,4.60
2018-04-12T03:23:54.935Z,4.60
2018-04-12T03:26:25.024Z,4.50
2018-04-12T03:28:53.131Z,4.60
2018-04-12T03:31:21.329Z,4.50
2018-04-12T03:33:49.454Z,4.50
2018-04-12T03:36:24.432Z,4.50
2018-04-12T03:38:52.570Z,4.50
2018-04-12T03:41:45.390Z,4.50
2018-04-12T03:44:19.005Z,4.50
2018-04-12T03:46:47.082Z,4.50
2018-04-12T03:49:18.851Z,4.40
2018-04-12T03:51:48.834Z,4.50
2018-04-12T03:54:16.949Z,4.50
2018-04-12T03:56:45.065Z,4.50
2018-04-12T03:59:14.117Z,4.50
2018-04-12T04:01:43.235Z,4.50
2018-04-12T04:04:27.719Z,4.50
2018-04-12T04:07:02.290Z,4.50
2018-04-12T04:09:34.885Z,4.40
2018-04-12T04:12:04.914Z,4.50
2018-04-12T04:14:41.898Z,4.50
2018-04-12T04:17:21.757Z,4.50
2018-04-12T04:20:04.515Z,4.50
2018-04-12T04:22:36.379Z,4.50
2018-04-12T04:25:05.374Z,4.50
2018-04-12T04:27:56.953Z,4.50
2018-04-12T04:30:25.134Z,4.50
2018-04-12T04:32:53.252Z,4.50
2018-04-12T04:35:27.524Z,4.50
2018-04-12T04:38:01.249Z,4.50
2018-04-12T04:40:35.826Z,4.60
2018-04-12T04:43:04.907Z,4.60
2018-04-12T04:45:34.118Z,4.60
2018-04-12T04:48:02.228Z,4.60
2018-04-12T04:50:30.332Z,4.60
2018-04-12T04:53:05.070Z,4.70
2018-04-12T04:55:44.409Z,4.70
2018-04-12T04:58:24.224Z,4.70
2018-04-12T05:00:52.364Z,4.80
2018-04-12T05:03:20.503Z,4.80
2018-04-12T05:05:49.613Z,4.90
2018-04-12T05:08:19.924Z,4.90
2018-04-12T05:10:48.982Z,4.90
2018-04-12T05:13:20.339Z,5.00
2018-04-12T05:15:59.776Z,5.00
2018-04-12T05:18:28.813Z,5.00
2018-04-12T05:21:00.671Z,5.10
2018-04-12T05:23:34.415Z,5.20
2018-04-12T05:26:04.660Z,5.20
2018-04-12T05:28:33.768Z,5.20
2018-04-12T05:33:59.764Z,5.30
2018-04-12T05:36:29.980Z,5.40
2018-04-12T05:39:00.134Z,5.50
2018-04-12T05:41:28.295Z,5.50
2018-04-12T05:43:58.605Z,5.60
2018-04-12T05:46:26.822Z,5.60
2018-04-12T05:48:54.981Z,5.70
2018-04-12T05:51:24.129Z,5.70
2018-04-12T05:54:00.199Z,5.90
2018-04-12T05:56:28.450Z,5.90
2018-04-12T05:59:08.144Z,6.00
2018-04-12T06:01:55.470Z,6.10
2018-04-12T06:04:23.764Z,6.20
2018-04-12T06:06:53.906Z,6.30
2018-04-12T06:09:25.676Z,6.30
2018-04-12T06:11:54.816Z,6.40
2018-04-12T06:14:23.851Z,6.50
2018-04-12T06:16:54.764Z,6.60
2018-04-12T06:19:25.584Z,6.70
2018-04-12T06:21:53.782Z,6.60
2018-04-12T06:24:21.954Z,6.80
2018-04-12T06:26:51.032Z,6.80
2018-04-12T06:29:36.044Z,6.90
2018-04-12T06:32:07.578Z,7.00
2018-04-12T06:34:45.996Z,7.10
2018-04-12T06:37:17.993Z,7.20
2018-04-12T06:40:09.674Z,7.30
2018-04-12T06:42:46.106Z,7.40
2018-04-12T06:45:21.926Z,7.40
2018-04-12T06:47:50.842Z,7.60
2018-04-12T06:50:18.918Z,7.60
2018-04-12T06:52:47.129Z,7.70
2018-04-12T06:55:16.302Z,7.80
2018-04-12T06:57:50.971Z,8.10
2018-04-12T07:00:21.402Z,8.00
2018-04-12T07:02:49.610Z,8.10
2018-04-12T07:05:21.797Z,8.20
2018-04-12T07:07:50.039Z,8.20
2018-04-12T07:10:25.401Z,8.30
2018-04-12T07:12:53.550Z,8.30
2018-04-12T07:15:21.676Z,8.40
2018-04-12T07:17:50.554Z,8.50
2018-04-12T07:20:22.912Z,8.50
2018-04-12T07:23:03.183Z,8.70
2018-04-12T07:25:31.369Z,8.80
2018-04-12T07:27:59.569Z,8.90
2018-04-12T07:30:32.270Z,9.00
2018-04-12T07:33:06.087Z,9.20
2018-04-12T07:35:38.067Z,9.30
2018-04-12T07:38:07.165Z,9.40
2018-04-12T07:40:36.343Z,9.40
2018-04-12T07:43:06.401Z,9.50
2018-04-12T07:45:36.541Z,9.50
2018-04-12T07:48:04.703Z,9.60
2018-04-12T07:50:32.867Z,9.70
2018-04-12T07:53:08.315Z,9.80
2018-04-12T07:55:36.476Z,9.90
2018-04-12T07:58:08.472Z,10.00
2018-04-12T08:00:36.660Z,10.10
2018-04-12T08:03:04.932Z,10.10
2018-04-12T08:05:33.063Z,10.00
2018-04-12T08:08:01.320Z,9.90
2018-04-12T08:10:31.593Z,10.10
2018-04-12T08:13:13.732Z,10.10
2018-04-12T08:15:42.937Z,10.10
2018-04-12T08:18:13.300Z,10.10
2018-04-12T08:20:42.408Z,10.20
2018-04-12T08:23:13.243Z,10.30
2018-04-12T08:25:41.452Z,10.30
2018-04-12T08:28:10.365Z,10.40
2018-04-12T08:30:47.701Z,10.50
2018-04-12T08:33:17.750Z,10.50
2018-04-12T08:35:45.923Z,10.50
2018-04-12T08:44:37.140Z,10.80
2018-04-12T08:53:27.386Z,11.00
2018-04-12T08:55:55.534Z,11.00
2018-04-12T08:58:25.524Z,11.10
2018-04-12T09:00:54.882Z,11.20
2018-04-12T09:03:25.173Z,11.30
2018-04-12T09:05:53.356Z,11.30
2018-04-12T09:08:28.005Z,11.30
2018-04-12T09:10:56.138Z,11.30
2018-04-12T09:13:30.412Z,11.50
2018-04-12T09:16:02.161Z,11.50
2018-04-12T09:18:30.424Z,11.70
2018-04-12T09:21:06.516Z,11.90
2018-04-12T09:23:37.035Z,12.00
2018-04-12T09:26:09.587Z,12.10
2018-04-12T09:28:43.640Z,12.00
2018-04-12T09:31:16.399Z,12.10
2018-04-12T09:33:45.526Z,12.40
2018-04-12T09:36:14.656Z,12.50
2018-04-12T09:38:44.392Z,12.60
2018-04-12T09:41:14.947Z,12.70
2018-04-12T09:43:43.819Z,12.80
2018-04-12T09:46:12.910Z,12.80
2018-04-12T09:48:43.050Z,12.80
2018-04-12T09:51:12.232Z,12.80
2018-04-12T09:53:40.366Z,12.80
2018-04-12T09:56:12.621Z,12.90
2018-04-12T09:58:48.915Z,13.20
2018-04-12T10:01:20.436Z,13.20
2018-04-12T10:03:49.827Z,13.20
2018-04-12T10:06:22.638Z,13.10
2018-04-12T10:09:13.387Z,13.00
2018-04-12T10:12:02.910Z,13.10
2018-04-12T10:14:34.498Z,13.20
2018-04-12T10:17:06.272Z,13.30
2018-04-12T10:19:35.438Z,13.50
2018-04-12T10:22:03.639Z,13.70
2018-04-12T10:24:32.770Z,14.00
2018-04-12T10:27:01.023Z,14.40
2018-04-12T10:29:29.163Z,14.70
2018-04-12T10:31:57.438Z,14.90
2018-04-12T10:34:26.491Z,14.80
2018-04-12T10:36:59.456Z,14.80
2018-04-12T10:39:28.741Z,14.90
2018-04-12T10:42:13.797Z,14.90
2018-04-12T10:44:42.955Z,14.70
2018-04-12T10:47:13.130Z,14.80
2018-04-12T10:49:42.479Z,14.60
2018-04-12T10:52:27.229Z,14.80
2018-04-12T10:54:55.396Z,14.80
2018-04-12T10:57:26.350Z,15.00
2018-04-12T10:59:54.548Z,14.90
2018-04-12T11:02:23.528Z,15.20
2018-04-12T11:04:51.630Z,15.20
2018-04-12T11:07:21.864Z,15.30
2018-04-12T11:09:50.000Z,15.40
2018-04-12T11:12:21.623Z,15.60
2018-04-12T11:14:57.059Z,15.70
2018-04-12T11:17:25.295Z,15.80
2018-04-12T11:19:53.525Z,16.00
2018-04-12T11:22:24.909Z,16.00
2018-04-12T11:24:53.105Z,16.40
2018-04-12T11:27:23.199Z,16.70
2018-04-12T11:29:51.402Z,16.50
2018-04-12T11:32:23.563Z,16.30
2018-04-12T11:34:51.747Z,16.40
2018-04-12T11:37:30.906Z,16.50
2018-04-12T11:39:59.029Z,16.80
2018-04-12T11:42:27.980Z,16.90
2018-04-12T11:44:57.126Z,16.90
2018-04-12T11:47:25.344Z,16.80
2018-04-12T11:49:54.581Z,16.60
2018-04-12T11:52:22.699Z,16.70
2018-04-12T11:54:51.823Z,16.90
2018-04-12T11:57:20.907Z,16.80
2018-04-12T11:59:49.092Z,16.80
2018-04-12T12:02:19.469Z,17.00
2018-04-12T12:04:47.696Z,17.00
2018-04-12T12:07:16.859Z,17.10
2018-04-12T12:09:47.309Z,17.20
2018-04-12T12:12:15.520Z,17.20
2018-04-12T12:17:43.295Z,17.90
2018-04-12T12:20:27.217Z,17.90
2018-04-12T12:22:58.674Z,17.70
2018-04-12T12:25:26.830Z,17.50
2018-04-12T12:27:56.113Z,17.40
2018-04-12T12:30:25.124Z,17.10
2018-04-12T12:32:53.280Z,17.00
2018-04-12T12:35:22.396Z,17.10
2018-04-12T12:37:56.404Z,17.00
2018-04-12T12:40:24.591Z,16.90
2018-04-12T12:42:53.806Z,16.90
2018-04-12T12:45:22.902Z,16.80
2018-04-12T12:47:52.324Z,16.80
2018-04-12T12:50:22.334Z,16.70
2018-04-12T12:53:00.478Z,16.60
2018-04-12T12:55:28.629Z,16.60
2018-04-12T12:57:58.492Z,16.60
2018-04-12T13:00:32.949Z,16.50
2018-04-12T13:03:02.131Z,16.60
2018-04-12T13:05:36.069Z,16.70
2018-04-12T13:08:04.313Z,16.80
2018-04-12T13:10:33.466Z,16.80
2018-04-12T13:13:05.746Z,16.70
2018-04-12T13:15:58.251Z,16.80
2018-04-12T13:18:30.102Z,16.50
2018-04-12T13:20:58.300Z,16.40
2018-04-12T13:23:26.495Z,16.40
2018-04-12T13:25:55.606Z,16.60
2018-04-12T13:28:24.735Z,16.80
2018-04-12T13:30:52.878Z,16.70
2018-04-12T13:33:28.075Z,16.80
2018-04-12T13:35:59.196Z,16.80
2018-04-12T13:38:32.964Z,16.90
2018-04-12T13:43:51.645Z,17.00
2018-04-12T13:46:19.794Z,17.20
2018-04-12T13:48:47.909Z,17.10
2018-04-12T13:51:16.082Z,17.10
2018-04-12T13:53:46.156Z,17.10
2018-04-12T13:56:16.293Z,17.00
2018-04-12T13:58:50.862Z,17.00
2018-04-12T14:01:18.973Z,17.10
2018-04-12T14:03:59.494Z,17.30
2018-04-12T14:06:28.568Z,17.30
2018-04-12T14:08:56.673Z,17.30
2018-04-12T14:11:24.854Z,17.30
2018-04-12T14:13:53.046Z,17.30
2018-04-12T14:16:24.465Z,17.20
2018-04-12T14:18:52.615Z,17.40
2018-04-12T14:21:20.941Z,17.40
2018-04-12T14:23:52.649Z,17.40
2018-04-12T14:26:20.838Z,17.20
2018-04-12T14:28:50.976Z,17.20
2018-04-12T14:31:19.123Z,17.20
2018-04-12T14:33:48.142Z,17.20
2018-04-12T14:36:16.388Z,17.30
2018-04-12T14:38:49.753Z,17.30
2018-04-12T14:41:17.936Z,17.40
2018-04-12T14:43:59.859Z,17.40
2018-04-12T14:46:33.061Z,17.50
2018-04-12T14:49:01.299Z,17.50
2018-04-12T14:51:35.354Z,17.50
2018-04-12T14:54:19.227Z,17.50
2018-04-12T14:56:46.046Z,17.60
2018-04-12T14:59:17.280Z,17.60
2018-04-12T15:28:31.558Z,18.00
2018-04-12T15:31:04.193Z,18.10
2018-04-12T15:33:39.611Z,18.20
2018-04-12T15:36:18.477Z,18.30
2018-04-12T15:38:46.653Z,18.30
2018-04-12T15:41:14.875Z,18.20
2018-04-12T15:43:43.001Z,18.00
2018-04-12T15:46:11.274Z,18.00
2018-04-12T15:48:39.481Z,18.10
2018-04-12T15:51:07.604Z,18.00
2018-04-12T15:53:36.739Z,18.00
2018-04-12T15:56:12.425Z,17.90
2018-04-12T15:58:50.574Z,18.00
2018-04-12T16:01:23.801Z,18.10
2018-04-12T16:03:59.201Z,18.10
2018-04-12T16:06:28.259Z,18.10
2018-04-12T16:08:57.341Z,18.00
2018-04-12T16:11:26.595Z,18.00
2018-04-12T16:13:58.442Z,17.90
2018-04-12T16:16:26.530Z,17.80
2018-04-12T16:18:54.711Z,17.80
2018-04-12T16:21:33.412Z,17.70
2018-04-12T16:24:01.628Z,17.70
2018-04-12T16:26:33.669Z,17.70
2018-04-12T16:29:05.705Z,17.60
2018-04-12T16:31:34.820Z,17.70
2018-04-12T16:34:02.980Z,17.70
2018-04-12T16:36:31.982Z,17.60
2018-04-12T16:39:00.463Z,17.60
2018-04-12T16:41:33.937Z,17.70
2018-04-12T16:44:06.544Z,17.60
2018-04-12T16:46:35.962Z,17.50
2018-04-12T16:49:16.349Z,17.40
2018-04-12T16:51:51.180Z,17.30
2018-04-12T16:54:22.902Z,17.20
2018-04-12T16:56:54.270Z,17.00
2018-04-12T16:59:29.660Z,16.90
2018-04-12T17:02:12.239Z,16.80
2018-04-12T17:04:42.772Z,16.60
2018-04-12T17:07:17.507Z,16.50
2018-04-12T17:12:42.163Z,16.20
2018-04-12T17:15:18.808Z,16.20
2018-04-12T17:17:46.940Z,16.10
2018-04-12T17:20:15.068Z,16.00
2018-04-12T17:22:44.990Z,15.90
2018-04-12T17:25:15.033Z,15.70
2018-04-12T17:27:44.018Z,15.60
2018-04-12T17:30:14.130Z,15.40
2018-04-12T17:32:46.719Z,15.20
2018-04-12T17:35:19.733Z,14.80
2018-04-12T17:37:50.510Z,14.70
2018-04-12T17:40:29.010Z,14.60
2018-04-12T17:42:58.256Z,14.60
2018-04-12T17:45:32.794Z,14.40
2018-04-12T17:48:00.924Z,14.20
2018-04-12T17:50:34.706Z,13.90
2018-04-12T17:53:07.822Z,13.90
2018-04-12T17:55:40.676Z,13.70
2018-04-12T17:58:12.489Z,13.50
2018-04-12T18:00:46.313Z,13.30
2018-04-12T18:03:14.437Z,13.10
2018-04-12T18:05:52.917Z,13.00
2018-04-12T18:08:24.478Z,12.90
2018-04-12T18:10:53.628Z,12.80
2018-04-12T18:13:21.810Z,12.70
2018-04-12T18:16:02.701Z,12.60
2018-04-12T18:18:30.829Z,12.50
2018-04-12T18:20:58.958Z,12.50
2018-04-12T18:23:28.570Z,12.20
2018-04-12T18:25:58.697Z,12.20
2018-04-12T18:28:26.895Z,12.20
2018-04-12T18:30:58.647Z,12.00
2018-04-12T18:33:28.769Z,12.00
2018-04-12T18:36:07.160Z,12.00
2018-04-12T18:38:35.275Z,11.90
2018-04-12T18:41:06.082Z,11.80
2018-04-12T18:43:39.188Z,11.80
2018-04-12T18:46:07.346Z,11.70
2018-04-12T18:48:35.495Z,11.70
2018-04-12T18:51:08.211Z,11.60
2018-04-12T18:53:36.340Z,11.50
2018-04-12T18:56:05.493Z,11.50
2018-04-12T18:58:57.717Z,11.40
2018-04-12T19:01:25.848Z,11.30
2018-04-12T19:03:53.965Z,11.20
2018-04-12T19:06:41.487Z,11.20
2018-04-12T19:09:09.617Z,11.20
2018-04-12T19:11:49.378Z,11.10
2018-04-12T19:14:25.332Z,11.00
2018-04-12T19:16:54.362Z,11.00
2018-04-12T19:19:27.888Z,10.90
2018-04-12T19:21:58.074Z,10.80
2018-04-12T19:24:26.172Z,10.80
2018-04-12T19:26:55.803Z,10.70
2018-04-12T19:29:23.995Z,10.60
2018-04-12T19:31:54.132Z,10.50
2018-04-12T19:34:22.279Z,10.50
2018-04-12T19:37:01.352Z,10.40
2018-04-12T19:39:29.437Z,10.40
2018-04-12T19:42:14.775Z,10.30
2018-04-12T19:44:42.910Z,10.30
2018-04-12T19:47:14.999Z,10.20
2018-04-12T19:49:53.626Z,10.10
2018-04-12T19:52:21.778Z,10.10
2018-04-12T19:54:56.403Z,10.10
2018-04-12T19:57:24.660Z,10.10
2018-04-12T19:59:55.567Z,10.10
2018-04-12T20:02:39.520Z,10.10
2018-04-12T20:05:11.977Z,10.00
2018-04-12T20:07:43.884Z,10.10
2018-04-12T20:10:13.159Z,10.10
2018-04-12T20:12:41.269Z,10.10
2018-04-12T20:15:10.333Z,10.10
2018-04-12T20:17:38.808Z,10.20
2018-04-12T20:20:13.203Z,10.20
2018-04-12T20:22:45.911Z,10.30
2018-04-12T20:25:15.731Z,10.30
2018-04-12T20:27:59.490Z,10.30
2018-04-12T20:30:30.400Z,10.30
2018-04-12T20:33:02.338Z,10.30
2018-04-12T20:35:32.412Z,10.30
2018-04-12T20:38:02.457Z,10.30
2018-04-12T20:40:30.610Z,10.40
2018-04-12T20:43:01.414Z,10.40
2018-04-12T20:45:33.442Z,10.40
2018-04-12T20:48:01.697Z,10.40
2018-04-12T20:50:34.652Z,10.40
2018-04-12T20:53:04.586Z,10.40
2018-04-12T20:55:32.727Z,10.40
2018-04-12T20:58:01.046Z,10.40
2018-04-12T21:00:29.320Z,10.40
2018-04-12T21:02:58.797Z,10.40
2018-04-12T21:05:26.955Z,10.40
2018-04-12T21:07:58.496Z,10.40
2018-04-12T21:10:52.352Z,10.50
2018-04-12T21:13:21.226Z,10.50
2018-04-12T21:15:49.375Z,10.50
2018-04-12T21:18:29.079Z,10.50
2018-04-12T21:21:08.876Z,10.50
2018-04-12T21:23:53.465Z,10.40
2018-04-12T21:26:21.870Z,10.40
2018-04-12T21:28:53.325Z,10.40
2018-04-12T21:31:24.707Z,10.40
2018-04-12T21:34:04.112Z,10.30
2018-04-12T21:36:37.579Z,10.30
2018-04-12T21:39:10.950Z,10.30
2018-04-12T21:41:45.406Z,10.20
2018-04-12T21:44:13.875Z,10.20
2018-04-12T21:46:42.948Z,10.20
2018-04-12T21:49:12.855Z,10.10
2018-04-12T21:52:01.161Z,10.10
2018-04-12T21:54:45.409Z,10.10
2018-04-12T22:00:13.610Z,10.00
2018-04-12T22:04:09.162Z,10.00
2018-04-12T22:06:49.848Z,10.00
2018-04-12T22:09:21.391Z,9.90
2018-04-12T22:11:55.851Z,9.90
2018-04-12T22:14:27.254Z,9.80
2018-04-12T22:16:55.500Z,9.80
2018-04-12T22:19:38.013Z,9.80
2018-04-12T22:22:06.377Z,9.70
2018-04-12T22:24:34.507Z,9.80
2018-04-12T22:27:10.567Z,9.80
2018-04-12T22:29:40.643Z,9.70
2018-04-12T22:32:09.681Z,9.80
2018-04-12T22:34:59.090Z,9.80
2018-04-12T22:37:28.359Z,9.80
2018-04-12T22:39:56.499Z,9.80
2018-04-12T22:42:24.651Z,9.80
2018-04-12T22:44:56.286Z,9.80
2018-04-12T22:47:28.371Z,9.90
2018-04-12T22:50:02.098Z,9.90
2018-04-12T22:52:34.698Z,9.90
2018-04-12T22:55:04.776Z,9.90
2018-04-12T22:57:37.665Z,9.90
2018-04-12T23:00:07.739Z,9.80
2018-04-12T23:02:42.523Z,9.80
2018-04-12T23:05:31.552Z,9.80
2018-04-12T23:08:14.398Z,9.80
2018-04-12T23:10:43.749Z,9.80
2018-04-12T23:13:25.009Z,9.80
2018-04-12T23:15:53.118Z,9.80
2018-04-12T23:18:21.246Z,9.80
2018-04-12T23:20:55.371Z,9.70
2018-04-12T23:29:20.182Z,9.70
2018-04-12T23:34:45.519Z,9.80
2018-04-12T23:37:15.522Z,9.80
2018-04-12T23:39:54.787Z,9.80
2018-04-12T23:42:26.251Z,9.80
2018-04-12T23:44:55.150Z,9.90
2018-04-12T23:47:25.033Z,9.90
2018-04-12T23:49:57.479Z,9.90
2018-04-12T23:52:26.571Z,9.90
2018-04-12T23:55:04.973Z,9.90
2018-04-12T23:57:37.193Z,9.90
